sensor_id;sensor_type;location;lat;lon;timestamp;P1;durP1;ratioP1;P2;durP2;ratioP2
48588;SDS011;34369;51.174;6.738;2024-03-22T00:02:12;51.85;;;47.72;;
48588;SDS011;34369;51.174;6.738;2024-03-22T00:04:43;52.90;;;48.22;;
48588;SDS011;34369;51.174;6.738;2024-03-22T00:07:16;52.40;;;48.30;;
48588;SDS011;34369;51.174;6.738;2024-03-22T00:09:47;51.40;;;47.20;;
48588;SDS011;34369;51.174;6.738;2024-03-22T00:12:21;50.88;;;46.75;;
48588;SDS011;34369;51.174;6.738;2024-03-22T00:14:53;52.22;;;47.92;;
48588;SDS011;34369;51.174;6.738;2024-03-22T00:17:25;52.50;;;48.13;;
48588;SDS011;34369;51.174;6.738;2024-03-22T00:19:56;51.80;;;47.60;;
48588;SDS011;34369;51.174;6.738;2024-03-22T00:22:29;52.25;;;47.90;;
48588;SDS011;34369;51.174;6.738;2024-03-22T00:25:00;53.42;;;49.15;;
48588;SDS011;34369;51.174;6.738;2024-03-22T00:27:33;51.95;;;47.85;;
48588;SDS011;34369;51.174;6.738;2024-03-22T00:30:05;52.40;;;48.20;;
48588;SDS011;34369;51.174;6.738;2024-03-22T00:32:39;53.55;;;48.88;;
48588;SDS011;34369;51.174;6.738;2024-03-22T00:35:11;52.85;;;48.22;;
48588;SDS011;34369;51.174;6.738;2024-03-22T00:37:43;51.63;;;47.38;;
48588;SDS011;34369;51.174;6.738;2024-03-22T00:40:14;54.25;;;49.65;;
48588;SDS011;34369;51.174;6.738;2024-03-22T00:42:49;53.30;;;48.60;;
48588;SDS011;34369;51.174;6.738;2024-03-22T00:45:20;51.97;;;47.78;;
48588;SDS011;34369;51.174;6.738;2024-03-22T00:47:53;53.42;;;49.17;;
48588;SDS011;34369;51.174;6.738;2024-03-22T00:50:24;53.15;;;48.83;;
48588;SDS011;34369;51.174;6.738;2024-03-22T00:52:57;52.90;;;48.45;;
48588;SDS011;34369;51.174;6.738;2024-03-22T00:55:29;50.40;;;46.20;;
48588;SDS011;34369;51.174;6.738;2024-03-22T00:58:02;51.10;;;46.95;;
48588;SDS011;34369;51.174;6.738;2024-03-22T01:00:33;51.13;;;46.97;;
48588;SDS011;34369;51.174;6.738;2024-03-22T01:03:06;51.70;;;47.28;;
48588;SDS011;34369;51.174;6.738;2024-03-22T01:05:38;52.47;;;48.25;;
48588;SDS011;34369;51.174;6.738;2024-03-22T01:08:12;51.45;;;47.33;;
48588;SDS011;34369;51.174;6.738;2024-03-22T01:10:43;52.13;;;47.92;;
48588;SDS011;34369;51.174;6.738;2024-03-22T01:13:19;52.13;;;47.83;;
48588;SDS011;34369;51.174;6.738;2024-03-22T01:15:50;51.83;;;47.50;;
48588;SDS011;34369;51.174;6.738;2024-03-22T01:18:25;50.55;;;46.55;;
48588;SDS011;34369;51.174;6.738;2024-03-22T01:20:56;53.00;;;48.50;;
48588;SDS011;34369;51.174;6.738;2024-03-22T01:23:29;49.97;;;45.88;;
48588;SDS011;34369;51.174;6.738;2024-03-22T01:26:01;51.10;;;46.90;;
48588;SDS011;34369;51.174;6.738;2024-03-22T01:28:35;48.75;;;44.85;;
48588;SDS011;34369;51.174;6.738;2024-03-22T01:31:06;50.90;;;46.67;;
48588;SDS011;34369;51.174;6.738;2024-03-22T01:33:38;50.67;;;46.47;;
48588;SDS011;34369;51.174;6.738;2024-03-22T01:36:10;49.80;;;45.80;;
48588;SDS011;34369;51.174;6.738;2024-03-22T01:38:43;50.95;;;46.90;;
48588;SDS011;34369;51.174;6.738;2024-03-22T01:41:14;51.28;;;47.08;;
48588;SDS011;34369;51.174;6.738;2024-03-22T01:43:49;49.90;;;45.90;;
48588;SDS011;34369;51.174;6.738;2024-03-22T01:46:20;49.63;;;45.58;;
48588;SDS011;34369;51.174;6.738;2024-03-22T01:48:53;50.65;;;46.60;;
48588;SDS011;34369;51.174;6.738;2024-03-22T01:51:24;49.72;;;45.83;;
48588;SDS011;34369;51.174;6.738;2024-03-22T01:53:56;50.25;;;46.20;;
48588;SDS011;34369;51.174;6.738;2024-03-22T01:56:30;48.97;;;45.08;;
48588;SDS011;34369;51.174;6.738;2024-03-22T01:59:04;49.33;;;45.33;;
48588;SDS011;34369;51.174;6.738;2024-03-22T02:01:36;50.38;;;46.40;;
48588;SDS011;34369;51.174;6.738;2024-03-22T02:04:10;50.90;;;46.72;;
48588;SDS011;34369;51.174;6.738;2024-03-22T02:06:41;51.13;;;47.17;;
48588;SDS011;34369;51.174;6.738;2024-03-22T02:09:17;51.20;;;46.78;;
48588;SDS011;34369;51.174;6.738;2024-03-22T02:11:49;48.53;;;44.65;;
48588;SDS011;34369;51.174;6.738;2024-03-22T02:14:23;49.67;;;45.78;;
48588;SDS011;34369;51.174;6.738;2024-03-22T02:16:56;47.97;;;44.17;;
48588;SDS011;34369;51.174;6.738;2024-03-22T02:19:27;49.17;;;45.33;;
48588;SDS011;34369;51.174;6.738;2024-03-22T02:21:59;50.63;;;46.42;;
48588;SDS011;34369;51.174;6.738;2024-03-22T02:24:32;48.50;;;44.70;;
48588;SDS011;34369;51.174;6.738;2024-03-22T02:27:04;48.97;;;45.17;;
48588;SDS011;34369;51.174;6.738;2024-03-22T02:29:37;47.80;;;43.80;;
48588;SDS011;34369;51.174;6.738;2024-03-22T02:32:09;48.63;;;44.85;;
48588;SDS011;34369;51.174;6.738;2024-03-22T02:34:40;47.63;;;43.67;;
48588;SDS011;34369;51.174;6.738;2024-03-22T02:37:12;48.50;;;44.72;;
48588;SDS011;34369;51.174;6.738;2024-03-22T02:39:45;46.80;;;43.08;;
48588;SDS011;34369;51.174;6.738;2024-03-22T02:42:17;48.03;;;44.25;;
48588;SDS011;34369;51.174;6.738;2024-03-22T02:44:49;48.45;;;44.70;;
48588;SDS011;34369;51.174;6.738;2024-03-22T02:47:22;48.45;;;44.78;;
48588;SDS011;34369;51.174;6.738;2024-03-22T02:49:53;46.75;;;43.20;;
48588;SDS011;34369;51.174;6.738;2024-03-22T02:52:25;47.97;;;44.28;;
48588;SDS011;34369;51.174;6.738;2024-03-22T02:54:58;47.75;;;44.08;;
48588;SDS011;34369;51.174;6.738;2024-03-22T02:57:30;46.97;;;43.58;;
48588;SDS011;34369;51.174;6.738;2024-03-22T03:00:01;48.28;;;44.50;;
48588;SDS011;34369;51.174;6.738;2024-03-22T03:02:35;45.50;;;42.00;;
48588;SDS011;34369;51.174;6.738;2024-03-22T03:05:07;46.22;;;42.83;;
48588;SDS011;34369;51.174;6.738;2024-03-22T03:07:41;46.95;;;43.20;;
48588;SDS011;34369;51.174;6.738;2024-03-22T03:10:13;46.58;;;43.03;;
48588;SDS011;34369;51.174;6.738;2024-03-22T03:12:46;46.47;;;42.97;;
48588;SDS011;34369;51.174;6.738;2024-03-22T03:15:18;46.97;;;43.58;;
48588;SDS011;34369;51.174;6.738;2024-03-22T03:17:50;47.33;;;43.53;;
48588;SDS011;34369;51.174;6.738;2024-03-22T03:20:22;47.35;;;43.90;;
48588;SDS011;34369;51.174;6.738;2024-03-22T03:22:57;47.42;;;43.83;;
48588;SDS011;34369;51.174;6.738;2024-03-22T03:25:32;46.42;;;42.95;;
48588;SDS011;34369;51.174;6.738;2024-03-22T03:28:08;46.33;;;42.92;;
48588;SDS011;34369;51.174;6.738;2024-03-22T03:30:40;45.00;;;41.90;;
48588;SDS011;34369;51.174;6.738;2024-03-22T03:33:14;46.53;;;43.00;;
48588;SDS011;34369;51.174;6.738;2024-03-22T03:35:47;46.13;;;42.63;;
48588;SDS011;34369;51.174;6.738;2024-03-22T03:38:20;45.85;;;42.45;;
48588;SDS011;34369;51.174;6.738;2024-03-22T03:40:56;45.88;;;42.58;;
48588;SDS011;34369;51.174;6.738;2024-03-22T03:43:30;47.08;;;43.67;;
48588;SDS011;34369;51.174;6.738;2024-03-22T03:46:03;45.78;;;42.47;;
48588;SDS011;34369;51.174;6.738;2024-03-22T03:48:37;46.03;;;42.42;;
48588;SDS011;34369;51.174;6.738;2024-03-22T03:51:12;46.60;;;43.30;;
48588;SDS011;34369;51.174;6.738;2024-03-22T03:53:46;45.93;;;42.40;;
48588;SDS011;34369;51.174;6.738;2024-03-22T03:56:20;46.83;;;43.33;;
48588;SDS011;34369;51.174;6.738;2024-03-22T03:58:53;48.00;;;44.50;;
48588;SDS011;34369;51.174;6.738;2024-03-22T04:01:26;46.80;;;43.47;;
48588;SDS011;34369;51.174;6.738;2024-03-22T04:04:02;46.55;;;43.15;;
48588;SDS011;34369;51.174;6.738;2024-03-22T04:06:35;46.42;;;43.03;;
48588;SDS011;34369;51.174;6.738;2024-03-22T04:09:09;45.80;;;42.40;;
48588;SDS011;34369;51.174;6.738;2024-03-22T04:11:43;44.70;;;41.40;;
48588;SDS011;34369;51.174;6.738;2024-03-22T04:14:18;44.70;;;41.40;;
48588;SDS011;34369;51.174;6.738;2024-03-22T04:16:51;44.00;;;40.80;;
48588;SDS011;34369;51.174;6.738;2024-03-22T04:19:26;46.30;;;43.00;;
48588;SDS011;34369;51.174;6.738;2024-03-22T04:21:59;45.13;;;41.93;;
48588;SDS011;34369;51.174;6.738;2024-03-22T04:24:34;44.63;;;41.33;;
48588;SDS011;34369;51.174;6.738;2024-03-22T04:27:08;46.30;;;42.90;;
48588;SDS011;34369;51.174;6.738;2024-03-22T04:29:42;45.23;;;42.10;;
48588;SDS011;34369;51.174;6.738;2024-03-22T04:34:53;44.60;;;41.40;;
48588;SDS011;34369;51.174;6.738;2024-03-22T04:37:26;45.73;;;42.43;;
48588;SDS011;34369;51.174;6.738;2024-03-22T04:40:00;45.60;;;42.30;;
48588;SDS011;34369;51.174;6.738;2024-03-22T04:42:35;47.17;;;43.67;;
48588;SDS011;34369;51.174;6.738;2024-03-22T04:45:08;46.47;;;42.93;;
48588;SDS011;34369;51.174;6.738;2024-03-22T04:47:43;44.93;;;41.63;;
48588;SDS011;34369;51.174;6.738;2024-03-22T04:50:16;47.00;;;43.50;;
48588;SDS011;34369;51.174;6.738;2024-03-22T04:52:49;46.37;;;43.17;;
48588;SDS011;34369;51.174;6.738;2024-03-22T04:55:22;46.03;;;42.70;;
48588;SDS011;34369;51.174;6.738;2024-03-22T04:57:59;47.17;;;43.43;;
48588;SDS011;34369;51.174;6.738;2024-03-22T05:00:32;47.20;;;43.80;;
48588;SDS011;34369;51.174;6.738;2024-03-22T05:03:08;45.07;;;41.83;;
48588;SDS011;34369;51.174;6.738;2024-03-22T05:05:40;47.40;;;43.80;;
48588;SDS011;34369;51.174;6.738;2024-03-22T05:08:15;46.38;;;43.03;;
48588;SDS011;34369;51.174;6.738;2024-03-22T05:10:48;46.75;;;43.35;;
48588;SDS011;34369;51.174;6.738;2024-03-22T05:13:25;46.97;;;43.40;;
48588;SDS011;34369;51.174;6.738;2024-03-22T05:15:58;47.58;;;43.92;;
48588;SDS011;34369;51.174;6.738;2024-03-22T05:18:32;46.73;;;43.43;;
48588;SDS011;34369;51.174;6.738;2024-03-22T05:21:04;47.37;;;44.07;;
48588;SDS011;34369;51.174;6.738;2024-03-22T05:23:38;46.38;;;43.08;;
48588;SDS011;34369;51.174;6.738;2024-03-22T05:26:10;48.07;;;44.63;;
48588;SDS011;34369;51.174;6.738;2024-03-22T05:28:46;46.70;;;43.35;;
48588;SDS011;34369;51.174;6.738;2024-03-22T05:31:19;46.17;;;42.87;;
48588;SDS011;34369;51.174;6.738;2024-03-22T05:33:53;45.03;;;41.93;;
48588;SDS011;34369;51.174;6.738;2024-03-22T05:36:26;47.60;;;44.10;;
48588;SDS011;34369;51.174;6.738;2024-03-22T05:38:59;46.40;;;43.00;;
48588;SDS011;34369;51.174;6.738;2024-03-22T05:41:32;48.67;;;44.90;;
48588;SDS011;34369;51.174;6.738;2024-03-22T05:44:08;48.77;;;45.17;;
48588;SDS011;34369;51.174;6.738;2024-03-22T05:46:40;46.70;;;43.45;;
48588;SDS011;34369;51.174;6.738;2024-03-22T05:49:14;47.28;;;43.78;;
48588;SDS011;34369;51.174;6.738;2024-03-22T05:51:46;46.33;;;42.97;;
48588;SDS011;34369;51.174;6.738;2024-03-22T05:54:21;48.72;;;45.17;;
48588;SDS011;34369;51.174;6.738;2024-03-22T05:56:53;45.33;;;42.10;;
48588;SDS011;34369;51.174;6.738;2024-03-22T05:59:28;46.70;;;43.20;;
48588;SDS011;34369;51.174;6.738;2024-03-22T06:02:02;46.88;;;43.30;;
48588;SDS011;34369;51.174;6.738;2024-03-22T06:04:37;48.08;;;44.72;;
48588;SDS011;34369;51.174;6.738;2024-03-22T06:07:09;47.43;;;44.03;;
48588;SDS011;34369;51.174;6.738;2024-03-22T06:09:45;48.33;;;44.72;;
48588;SDS011;34369;51.174;6.738;2024-03-22T06:12:18;46.63;;;43.35;;
48588;SDS011;34369;51.174;6.738;2024-03-22T06:14:54;45.42;;;42.10;;
48588;SDS011;34369;51.174;6.738;2024-03-22T06:17:26;46.97;;;43.67;;
48588;SDS011;34369;51.174;6.738;2024-03-22T06:19:59;45.97;;;42.67;;
48588;SDS011;34369;51.174;6.738;2024-03-22T06:22:32;44.80;;;41.45;;
48588;SDS011;34369;51.174;6.738;2024-03-22T06:25:07;45.25;;;41.50;;
48588;SDS011;34369;51.174;6.738;2024-03-22T06:27:39;45.45;;;42.05;;
48588;SDS011;34369;51.174;6.738;2024-03-22T06:30:15;46.85;;;43.25;;
48588;SDS011;34369;51.174;6.738;2024-03-22T06:32:48;46.63;;;43.08;;
48588;SDS011;34369;51.174;6.738;2024-03-22T06:35:21;47.50;;;43.70;;
48588;SDS011;34369;51.174;6.738;2024-03-22T06:37:54;46.08;;;42.65;;
48588;SDS011;34369;51.174;6.738;2024-03-22T06:40:30;48.70;;;45.10;;
48588;SDS011;34369;51.174;6.738;2024-03-22T06:43:02;45.67;;;42.25;;
48588;SDS011;34369;51.174;6.738;2024-03-22T06:45:38;47.15;;;43.80;;
48588;SDS011;34369;51.174;6.738;2024-03-22T06:48:13;47.25;;;43.33;;
48588;SDS011;34369;51.174;6.738;2024-03-22T06:50:47;45.78;;;42.13;;
48588;SDS011;34369;51.174;6.738;2024-03-22T06:53:19;46.60;;;43.00;;
48588;SDS011;34369;51.174;6.738;2024-03-22T06:55:53;47.35;;;43.65;;
48588;SDS011;34369;51.174;6.738;2024-03-22T06:58:26;47.72;;;44.30;;
48588;SDS011;34369;51.174;6.738;2024-03-22T07:01:04;48.17;;;44.47;;
48588;SDS011;34369;51.174;6.738;2024-03-22T07:03:39;48.25;;;44.55;;
48588;SDS011;34369;51.174;6.738;2024-03-22T07:06:17;49.42;;;45.72;;
48588;SDS011;34369;51.174;6.738;2024-03-22T07:08:50;49.33;;;45.60;;
48588;SDS011;34369;51.174;6.738;2024-03-22T07:11:23;48.30;;;44.60;;
48588;SDS011;34369;51.174;6.738;2024-03-22T07:13:58;49.33;;;45.30;;
48588;SDS011;34369;51.174;6.738;2024-03-22T07:16:32;50.03;;;46.22;;
48588;SDS011;34369;51.174;6.738;2024-03-22T07:19:07;47.15;;;43.45;;
48588;SDS011;34369;51.174;6.738;2024-03-22T07:21:39;48.70;;;45.05;;
48588;SDS011;34369;51.174;6.738;2024-03-22T07:24:13;50.33;;;46.22;;
48588;SDS011;34369;51.174;6.738;2024-03-22T07:26:48;49.85;;;46.05;;
48588;SDS011;34369;51.174;6.738;2024-03-22T07:29:24;50.78;;;46.75;;
48588;SDS011;34369;51.174;6.738;2024-03-22T07:31:59;50.53;;;46.42;;
48588;SDS011;34369;51.174;6.738;2024-03-22T07:34:33;50.63;;;46.42;;
48588;SDS011;34369;51.174;6.738;2024-03-22T07:37:07;49.95;;;45.85;;
48588;SDS011;34369;51.174;6.738;2024-03-22T07:39:42;48.05;;;44.20;;
48588;SDS011;34369;51.174;6.738;2024-03-22T07:42:14;49.08;;;44.90;;
48588;SDS011;34369;51.174;6.738;2024-03-22T07:44:48;49.80;;;45.90;;
48588;SDS011;34369;51.174;6.738;2024-03-22T07:47:22;48.20;;;44.40;;
48588;SDS011;34369;51.174;6.738;2024-03-22T07:49:57;48.00;;;44.40;;
48588;SDS011;34369;51.174;6.738;2024-03-22T07:52:29;49.72;;;45.78;;
48588;SDS011;34369;51.174;6.738;2024-03-22T07:55:03;46.58;;;43.03;;
48588;SDS011;34369;51.174;6.738;2024-03-22T07:57:36;48.17;;;44.42;;
48588;SDS011;34369;51.174;6.738;2024-03-22T08:00:10;48.65;;;44.70;;
48588;SDS011;34369;51.174;6.738;2024-03-22T08:02:45;48.03;;;44.22;;
48588;SDS011;34369;51.174;6.738;2024-03-22T08:05:18;50.10;;;45.72;;
48588;SDS011;34369;51.174;6.738;2024-03-22T08:07:51;48.53;;;44.63;;
48588;SDS011;34369;51.174;6.738;2024-03-22T08:10:25;48.50;;;44.63;;
48588;SDS011;34369;51.174;6.738;2024-03-22T08:12:58;47.70;;;43.85;;
48588;SDS011;34369;51.174;6.738;2024-03-22T08:15:32;47.90;;;44.22;;
48588;SDS011;34369;51.174;6.738;2024-03-22T08:18:07;48.47;;;44.33;;
48588;SDS011;34369;51.174;6.738;2024-03-22T08:20:40;47.08;;;43.45;;
48588;SDS011;34369;51.174;6.738;2024-03-22T08:23:13;49.28;;;44.10;;
48588;SDS011;34369;51.174;6.738;2024-03-22T08:25:48;47.63;;;43.88;;
48588;SDS011;34369;51.174;6.738;2024-03-22T08:28:20;47.10;;;43.47;;
48588;SDS011;34369;51.174;6.738;2024-03-22T08:30:54;46.83;;;43.20;;
48588;SDS011;34369;51.174;6.738;2024-03-22T08:33:29;47.28;;;43.58;;
48588;SDS011;34369;51.174;6.738;2024-03-22T08:36:02;46.75;;;43.05;;
48588;SDS011;34369;51.174;6.738;2024-03-22T08:38:35;46.30;;;42.80;;
48588;SDS011;34369;51.174;6.738;2024-03-22T08:41:10;44.80;;;41.30;;
48588;SDS011;34369;51.174;6.738;2024-03-22T08:43:43;45.25;;;41.67;;
48588;SDS011;34369;51.174;6.738;2024-03-22T08:46:17;44.75;;;41.35;;
48588;SDS011;34369;51.174;6.738;2024-03-22T08:48:53;44.95;;;41.38;;
48588;SDS011;34369;51.174;6.738;2024-03-22T08:51:27;45.17;;;41.67;;
48588;SDS011;34369;51.174;6.738;2024-03-22T08:54:00;43.53;;;40.03;;
48588;SDS011;34369;51.174;6.738;2024-03-22T08:56:34;44.22;;;40.92;;
48588;SDS011;34369;51.174;6.738;2024-03-22T08:59:07;44.05;;;40.55;;
48588;SDS011;34369;51.174;6.738;2024-03-22T09:01:40;43.00;;;39.70;;
48588;SDS011;34369;51.174;6.738;2024-03-22T09:04:15;42.80;;;39.58;;
48588;SDS011;34369;51.174;6.738;2024-03-22T09:06:49;42.47;;;39.30;;
48588;SDS011;34369;51.174;6.738;2024-03-22T09:09:22;42.40;;;39.30;;
48588;SDS011;34369;51.174;6.738;2024-03-22T09:11:55;42.25;;;39.05;;
48588;SDS011;34369;51.174;6.738;2024-03-22T09:14:28;41.95;;;38.75;;
48588;SDS011;34369;51.174;6.738;2024-03-22T09:17:02;42.28;;;38.90;;
48588;SDS011;34369;51.174;6.738;2024-03-22T09:19:36;41.53;;;38.42;;
48588;SDS011;34369;51.174;6.738;2024-03-22T09:22:14;41.53;;;38.28;;
48588;SDS011;34369;51.174;6.738;2024-03-22T09:24:48;41.08;;;38.05;;
48588;SDS011;34369;51.174;6.738;2024-03-22T09:27:21;40.45;;;37.45;;
48588;SDS011;34369;51.174;6.738;2024-03-22T09:29:55;41.13;;;38.00;;
48588;SDS011;34369;51.174;6.738;2024-03-22T09:32:29;40.58;;;37.53;;
48588;SDS011;34369;51.174;6.738;2024-03-22T09:35:05;40.70;;;37.58;;
48588;SDS011;34369;51.174;6.738;2024-03-22T09:37:38;40.88;;;37.95;;
48588;SDS011;34369;51.174;6.738;2024-03-22T09:40:12;40.25;;;37.25;;
48588;SDS011;34369;51.174;6.738;2024-03-22T09:42:44;40.15;;;37.15;;
48588;SDS011;34369;51.174;6.738;2024-03-22T09:45:21;39.33;;;36.42;;
48588;SDS011;34369;51.174;6.738;2024-03-22T09:47:54;39.67;;;36.78;;
48588;SDS011;34369;51.174;6.738;2024-03-22T09:50:32;40.53;;;37.50;;
48588;SDS011;34369;51.174;6.738;2024-03-22T09:53:06;39.55;;;36.72;;
48588;SDS011;34369;51.174;6.738;2024-03-22T09:55:41;40.53;;;36.95;;
48588;SDS011;34369;51.174;6.738;2024-03-22T09:58:14;40.75;;;37.65;;
48588;SDS011;34369;51.174;6.738;2024-03-22T10:00:48;40.85;;;37.83;;
48588;SDS011;34369;51.174;6.738;2024-03-22T10:03:21;41.40;;;38.22;;
48588;SDS011;34369;51.174;6.738;2024-03-22T10:05:56;41.60;;;38.40;;
48588;SDS011;34369;51.174;6.738;2024-03-22T10:08:29;41.47;;;38.38;;
48588;SDS011;34369;51.174;6.738;2024-03-22T10:11:03;41.63;;;38.58;;
48588;SDS011;34369;51.174;6.738;2024-03-22T10:13:35;41.63;;;38.42;;
48588;SDS011;34369;51.174;6.738;2024-03-22T10:16:10;40.80;;;37.67;;
48588;SDS011;34369;51.174;6.738;2024-03-22T10:18:43;41.78;;;38.65;;
48588;SDS011;34369;51.174;6.738;2024-03-22T10:21:19;42.00;;;38.90;;
48588;SDS011;34369;51.174;6.738;2024-03-22T10:23:53;40.25;;;37.15;;
48588;SDS011;34369;51.174;6.738;2024-03-22T10:26:26;41.78;;;38.67;;
48588;SDS011;34369;51.174;6.738;2024-03-22T10:28:59;42.05;;;38.85;;
48588;SDS011;34369;51.174;6.738;2024-03-22T10:31:34;42.55;;;39.25;;
48588;SDS011;34369;51.174;6.738;2024-03-22T10:34:06;41.35;;;38.35;;
48588;SDS011;34369;51.174;6.738;2024-03-22T10:36:45;41.88;;;38.63;;
48588;SDS011;34369;51.174;6.738;2024-03-22T10:39:18;41.92;;;38.92;;
48588;SDS011;34369;51.174;6.738;2024-03-22T10:41:53;41.78;;;38.60;;
48588;SDS011;34369;51.174;6.738;2024-03-22T10:44:26;41.78;;;38.63;;
48588;SDS011;34369;51.174;6.738;2024-03-22T10:47:01;41.85;;;38.40;;
48588;SDS011;34369;51.174;6.738;2024-03-22T10:49:38;41.65;;;38.42;;
48588;SDS011;34369;51.174;6.738;2024-03-22T10:52:13;41.35;;;37.95;;
48588;SDS011;34369;51.174;6.738;2024-03-22T10:54:47;41.75;;;38.75;;
48588;SDS011;34369;51.174;6.738;2024-03-22T10:57:22;43.20;;;39.90;;
48588;SDS011;34369;51.174;6.738;2024-03-22T10:59:54;42.70;;;39.40;;
48588;SDS011;34369;51.174;6.738;2024-03-22T11:02:28;40.05;;;37.05;;
48588;SDS011;34369;51.174;6.738;2024-03-22T11:05:00;41.03;;;37.92;;
48588;SDS011;34369;51.174;6.738;2024-03-22T11:07:37;40.70;;;37.75;;
48588;SDS011;34369;51.174;6.738;2024-03-22T11:10:11;41.22;;;38.20;;
48588;SDS011;34369;51.174;6.738;2024-03-22T11:12:45;41.45;;;38.20;;
48588;SDS011;34369;51.174;6.738;2024-03-22T11:15:22;42.22;;;39.03;;
48588;SDS011;34369;51.174;6.738;2024-03-22T11:17:56;41.03;;;37.83;;
48588;SDS011;34369;51.174;6.738;2024-03-22T11:20:30;40.70;;;37.78;;
48588;SDS011;34369;51.174;6.738;2024-03-22T11:23:05;40.40;;;37.20;;
48588;SDS011;34369;51.174;6.738;2024-03-22T11:25:40;40.83;;;37.75;;
48588;SDS011;34369;51.174;6.738;2024-03-22T11:28:15;40.83;;;37.83;;
48588;SDS011;34369;51.174;6.738;2024-03-22T11:30:48;41.58;;;38.55;;
48588;SDS011;34369;51.174;6.738;2024-03-22T11:33:24;40.25;;;37.20;;
48588;SDS011;34369;51.174;6.738;2024-03-22T11:35:58;41.00;;;37.85;;
48588;SDS011;34369;51.174;6.738;2024-03-22T11:38:33;40.33;;;37.35;;
48588;SDS011;34369;51.174;6.738;2024-03-22T11:41:04;40.38;;;37.38;;
48588;SDS011;34369;51.174;6.738;2024-03-22T11:43:40;39.72;;;36.83;;
48588;SDS011;34369;51.174;6.738;2024-03-22T11:46:12;38.97;;;36.08;;
48588;SDS011;34369;51.174;6.738;2024-03-22T11:48:50;39.83;;;36.88;;
48588;SDS011;34369;51.174;6.738;2024-03-22T11:51:25;39.00;;;36.20;;
48588;SDS011;34369;51.174;6.738;2024-03-22T11:54:00;40.17;;;37.17;;
48588;SDS011;34369;51.174;6.738;2024-03-22T11:56:39;38.97;;;36.08;;
48588;SDS011;34369;51.174;6.738;2024-03-22T11:59:11;38.15;;;35.35;;
48588;SDS011;34369;51.174;6.738;2024-03-22T12:01:45;38.85;;;36.00;;
48588;SDS011;34369;51.174;6.738;2024-03-22T12:04:18;39.15;;;36.13;;
48588;SDS011;34369;51.174;6.738;2024-03-22T12:06:52;38.45;;;35.58;;
48588;SDS011;34369;51.174;6.738;2024-03-22T12:09:29;38.80;;;36.00;;
48588;SDS011;34369;51.174;6.738;2024-03-22T12:12:04;40.08;;;37.08;;
48588;SDS011;34369;51.174;6.738;2024-03-22T12:14:37;40.10;;;37.17;;
48588;SDS011;34369;51.174;6.738;2024-03-22T12:17:12;41.28;;;38.03;;
48588;SDS011;34369;51.174;6.738;2024-03-22T12:19:45;39.22;;;36.33;;
48588;SDS011;34369;51.174;6.738;2024-03-22T12:22:20;39.75;;;36.75;;
48588;SDS011;34369;51.174;6.738;2024-03-22T12:24:58;40.63;;;37.60;;
48588;SDS011;34369;51.174;6.738;2024-03-22T12:30:06;39.50;;;36.67;;
48588;SDS011;34369;51.174;6.738;2024-03-22T12:32:40;41.15;;;37.70;;
48588;SDS011;34369;51.174;6.738;2024-03-22T12:35:13;40.40;;;37.40;;
48588;SDS011;34369;51.174;6.738;2024-03-22T12:37:47;40.13;;;37.20;;
48588;SDS011;34369;51.174;6.738;2024-03-22T12:40:21;41.53;;;38.50;;
48588;SDS011;34369;51.174;6.738;2024-03-22T12:42:54;40.92;;;37.95;;
48588;SDS011;34369;51.174;6.738;2024-03-22T12:45:27;40.67;;;37.67;;
48588;SDS011;34369;51.174;6.738;2024-03-22T12:48:00;41.72;;;38.63;;
48588;SDS011;34369;51.174;6.738;2024-03-22T12:50:32;41.47;;;38.40;;
48588;SDS011;34369;51.174;6.738;2024-03-22T12:53:08;40.88;;;37.65;;
48588;SDS011;34369;51.174;6.738;2024-03-22T12:55:42;40.95;;;37.97;;
48588;SDS011;34369;51.174;6.738;2024-03-22T12:58:16;40.55;;;37.47;;
48588;SDS011;34369;51.174;6.738;2024-03-22T13:00:48;40.85;;;37.70;;
48588;SDS011;34369;51.174;6.738;2024-03-22T13:03:23;40.40;;;37.50;;
48588;SDS011;34369;51.174;6.738;2024-03-22T13:05:55;40.85;;;37.75;;
48588;SDS011;34369;51.174;6.738;2024-03-22T13:08:29;40.95;;;37.83;;
48588;SDS011;34369;51.174;6.738;2024-03-22T13:11:04;41.63;;;38.47;;
48588;SDS011;34369;51.174;6.738;2024-03-22T13:13:39;40.95;;;38.05;;
48588;SDS011;34369;51.174;6.738;2024-03-22T13:16:14;41.17;;;38.03;;
48588;SDS011;34369;51.174;6.738;2024-03-22T13:18:49;40.53;;;37.60;;
48588;SDS011;34369;51.174;6.738;2024-03-22T13:21:22;39.22;;;36.53;;
48588;SDS011;34369;51.174;6.738;2024-03-22T13:23:57;38.72;;;36.10;;
48588;SDS011;34369;51.174;6.738;2024-03-22T13:26:33;38.05;;;35.38;;
48588;SDS011;34369;51.174;6.738;2024-03-22T13:29:06;39.00;;;36.28;;
48588;SDS011;34369;51.174;6.738;2024-03-22T13:31:39;38.60;;;35.90;;
48588;SDS011;34369;51.174;6.738;2024-03-22T13:34:11;40.08;;;37.22;;
48588;SDS011;34369;51.174;6.738;2024-03-22T13:36:45;39.40;;;36.45;;
48588;SDS011;34369;51.174;6.738;2024-03-22T13:39:18;38.67;;;35.97;;
48588;SDS011;34369;51.174;6.738;2024-03-22T13:41:56;39.00;;;36.30;;
48588;SDS011;34369;51.174;6.738;2024-03-22T13:44:31;38.92;;;36.17;;
48588;SDS011;34369;51.174;6.738;2024-03-22T13:47:07;38.65;;;36.05;;
48588;SDS011;34369;51.174;6.738;2024-03-22T13:49:39;38.50;;;35.80;;
48588;SDS011;34369;51.174;6.738;2024-03-22T13:52:13;38.90;;;36.20;;
48588;SDS011;34369;51.174;6.738;2024-03-22T13:54:45;38.80;;;36.13;;
48588;SDS011;34369;51.174;6.738;2024-03-22T13:57:22;38.83;;;36.13;;
48588;SDS011;34369;51.174;6.738;2024-03-22T13:59:56;39.33;;;36.63;;
48588;SDS011;34369;51.174;6.738;2024-03-22T14:02:33;39.38;;;36.78;;
48588;SDS011;34369;51.174;6.738;2024-03-22T14:05:05;38.25;;;35.55;;
48588;SDS011;34369;51.174;6.738;2024-03-22T14:07:39;38.58;;;35.97;;
48588;SDS011;34369;51.174;6.738;2024-03-22T14:10:12;39.63;;;36.67;;
48588;SDS011;34369;51.174;6.738;2024-03-22T14:12:48;39.30;;;36.30;;
48588;SDS011;34369;51.174;6.738;2024-03-22T14:15:23;39.40;;;36.50;;
48588;SDS011;34369;51.174;6.738;2024-03-22T14:18:01;40.40;;;37.60;;
48588;SDS011;34369;51.174;6.738;2024-03-22T14:20:35;39.40;;;36.70;;
48588;SDS011;34369;51.174;6.738;2024-03-22T14:23:07;38.90;;;36.20;;
48588;SDS011;34369;51.174;6.738;2024-03-22T14:25:41;38.92;;;36.28;;
48588;SDS011;34369;51.174;6.738;2024-03-22T14:28:18;40.05;;;37.15;;
48588;SDS011;34369;51.174;6.738;2024-03-22T14:30:53;39.72;;;36.92;;
48588;SDS011;34369;51.174;6.738;2024-03-22T14:33:26;40.72;;;37.65;;
48588;SDS011;34369;51.174;6.738;2024-03-22T14:36:01;39.90;;;37.13;;
48588;SDS011;34369;51.174;6.738;2024-03-22T14:38:36;40.55;;;37.65;;
48588;SDS011;34369;51.174;6.738;2024-03-22T14:41:12;41.17;;;38.17;;
48588;SDS011;34369;51.174;6.738;2024-03-22T14:43:46;41.00;;;38.10;;
48588;SDS011;34369;51.174;6.738;2024-03-22T14:46:19;43.95;;;40.83;;
48588;SDS011;34369;51.174;6.738;2024-03-22T14:48:55;43.25;;;40.15;;
48588;SDS011;34369;51.174;6.738;2024-03-22T14:51:30;40.42;;;37.50;;
48588;SDS011;34369;51.174;6.738;2024-03-22T14:54:02;39.90;;;37.05;;
48588;SDS011;34369;51.174;6.738;2024-03-22T14:56:36;40.47;;;37.65;;
48588;SDS011;34369;51.174;6.738;2024-03-22T14:59:10;41.17;;;38.08;;
48588;SDS011;34369;51.174;6.738;2024-03-22T15:01:44;39.72;;;36.80;;
48588;SDS011;34369;51.174;6.738;2024-03-22T15:04:17;40.83;;;37.75;;